createdAt,value
2018-04-09T00:02:21.547Z,47.77
2018-04-09T00:04:47.366Z,48.32
2018-04-09T00:07:13.174Z,48.78
2018-04-09T00:09:38.982Z,48.94
2018-04-09T00:12:04.825Z,48.26
2018-04-09T00:14:30.630Z,48.16
2018-04-09T00:16:56.435Z,47.71
2018-04-09T00:19:22.247Z,47.23
2018-04-09T00:21:48.070Z,47.69
2018-04-09T00:24:13.884Z,48.97
2018-04-09T00:26:39.695Z,48.06
2018-04-09T00:29:05.506Z,48.39
2018-04-09T00:31:31.315Z,47.44
2018-04-09T00:33:57.184Z,47.45
2018-04-09T00:36:23.025Z,47.28
2018-04-09T00:38:48.861Z,48.33
2018-04-09T00:41:14.714Z,48.90
2018-04-09T00:43:40.522Z,47.85
2018-04-09T00:46:06.367Z,48.39
2018-04-09T00:48:32.174Z,48.34
2018-04-09T00:50:58.030Z,47.74
2018-04-09T00:53:27.783Z,47.32
2018-04-09T00:55:53.585Z,48.08
2018-04-09T00:58:19.395Z,48.94
2018-04-09T01:00:45.234Z,48.71
2018-04-09T01:03:11.082Z,47.67
2018-04-09T01:05:36.902Z,47.24
2018-04-09T01:08:02.766Z,47.49
2018-04-09T01:10:28.601Z,47.38
2018-04-09T01:12:54.438Z,47.57
2018-04-09T01:15:20.243Z,48.65
2018-04-09T01:17:46.082Z,48.04
2018-04-09T01:20:11.887Z,48.98
2018-04-09T01:22:37.765Z,48.81
2018-04-09T01:25:07.509Z,48.91
2018-04-09T01:27:33.363Z,49.16
2018-04-09T01:29:59.170Z,48.18
2018-04-09T01:32:24.973Z,48.62
2018-04-09T01:34:50.806Z,47.27
2018-04-09T01:37:16.621Z,47.35
2018-04-09T01:39:42.465Z,47.25
2018-04-09T01:42:08.286Z,48.89
2018-04-09T01:44:34.131Z,48.09
2018-04-09T01:46:59.970Z,47.33
2018-04-09T01:49:25.772Z,47.30
2018-04-09T01:51:51.578Z,47.80
2018-04-09T01:54:17.383Z,47.87
2018-04-09T01:56:43.236Z,47.48
2018-04-09T01:59:09.038Z,47.87
2018-04-09T02:01:34.845Z,48.54
2018-04-09T02:04:00.671Z,48.55
2018-04-09T02:06:26.483Z,48.41
2018-04-09T02:08:52.298Z,47.68
2018-04-09T02:11:18.105Z,47.88
2018-04-09T02:13:43.914Z,48.23
2018-04-09T02:16:10.768Z,48.30
2018-04-09T02:18:36.591Z,48.45
2018-04-09T02:21:02.400Z,47.63
2018-04-09T02:23:28.250Z,47.70
2018-04-09T02:25:54.071Z,48.66
2018-04-09T02:28:19.889Z,47.77
2018-04-09T02:30:45.696Z,47.69
2018-04-09T02:33:11.507Z,47.10
2018-04-09T02:35:37.338Z,47.33
2018-04-09T02:38:03.162Z,48.46
2018-04-09T02:40:29.030Z,47.73
2018-04-09T02:42:54.834Z,47.28
2018-04-09T02:45:20.643Z,47.11
2018-04-09T02:47:46.455Z,47.29
2018-04-09T02:50:12.268Z,48.23
2018-04-09T02:52:38.117Z,47.89
2018-04-09T02:55:03.921Z,47.69
2018-04-09T02:57:29.729Z,46.94
2018-04-09T02:59:55.547Z,47.18
2018-04-09T03:02:21.373Z,47.66
2018-04-09T03:04:47.186Z,48.07
2018-04-09T03:07:13.015Z,47.35
2018-04-09T03:09:38.853Z,47.23
2018-04-09T03:12:04.676Z,47.08
2018-04-09T03:14:30.488Z,46.91
2018-04-09T03:16:56.298Z,47.37
2018-04-09T03:19:22.112Z,47.04
2018-04-09T03:21:47.919Z,46.83
2018-04-09T03:24:13.725Z,47.18
2018-04-09T03:26:39.550Z,46.75
2018-04-09T03:29:05.357Z,47.34
2018-04-09T03:31:31.167Z,47.36
2018-04-09T03:33:57.023Z,47.54
2018-04-09T03:36:22.849Z,47.84
2018-04-09T03:38:48.655Z,48.06
2018-04-09T03:41:14.510Z,47.75
2018-04-09T03:43:40.315Z,47.31
2018-04-09T03:46:06.127Z,47.13
2018-04-09T03:48:31.939Z,46.66
2018-04-09T03:50:57.759Z,46.43
2018-04-09T03:53:23.607Z,46.11
2018-04-09T03:55:49.414Z,46.65
2018-04-09T03:58:15.257Z,46.99
2018-04-09T04:00:41.074Z,47.14
2018-04-09T04:03:06.883Z,46.57
2018-04-09T04:05:32.690Z,46.83
2018-04-09T04:07:58.493Z,46.83
2018-04-09T04:10:24.299Z,47.14
2018-04-09T04:12:50.111Z,46.68
2018-04-09T04:15:15.918Z,46.71
2018-04-09T04:17:47.823Z,46.93
2018-04-09T04:20:19.898Z,47.23
2018-04-09T04:22:45.758Z,47.25
2018-04-09T04:25:11.564Z,46.82
2018-04-09T04:27:37.391Z,46.92
2018-04-09T04:30:03.223Z,46.93
2018-04-09T04:32:29.062Z,46.99
2018-04-09T04:34:54.951Z,46.65
2018-04-09T04:37:20.758Z,46.39
2018-04-09T04:39:46.558Z,47.15
2018-04-09T04:42:12.397Z,47.64
2018-04-09T04:44:38.202Z,47.46
2018-04-09T04:47:04.046Z,47.24
2018-04-09T04:49:29.855Z,46.90
2018-04-09T04:51:55.697Z,46.98
2018-04-09T04:54:21.562Z,46.69
2018-04-09T04:56:47.400Z,46.86
2018-04-09T04:59:13.310Z,46.88
2018-04-09T05:01:39.299Z,46.44
2018-04-09T05:04:05.151Z,46.34
2018-04-09T05:06:31.010Z,46.73
2018-04-09T05:08:56.824Z,46.75
2018-04-09T05:11:22.634Z,46.61
2018-04-09T05:13:48.442Z,46.66
2018-04-09T05:16:14.255Z,46.99
2018-04-09T05:18:40.066Z,46.44
2018-04-09T05:21:05.908Z,46.34
2018-04-09T05:23:31.749Z,46.74
2018-04-09T05:25:57.561Z,46.75
2018-04-09T05:28:23.489Z,46.36
2018-04-09T05:30:49.299Z,46.27
2018-04-09T05:33:15.278Z,46.58
2018-04-09T05:35:41.090Z,46.88
2018-04-09T05:38:06.935Z,46.57
2018-04-09T05:40:32.742Z,46.73
2018-04-09T05:42:58.574Z,47.02
2018-04-09T05:45:24.384Z,46.96
2018-04-09T05:47:50.206Z,46.62
2018-04-09T05:50:16.086Z,47.03
2018-04-09T05:52:42.439Z,46.99
2018-04-09T05:55:08.270Z,46.75
2018-04-09T05:57:34.092Z,46.54
2018-04-09T05:59:59.903Z,46.92
2018-04-09T06:02:25.736Z,46.71
2018-04-09T06:04:51.558Z,46.82
2018-04-09T06:07:17.373Z,46.69
2018-04-09T06:09:43.178Z,47.78
2018-04-09T06:12:08.986Z,47.90
2018-04-09T06:14:35.085Z,48.46
2018-04-09T06:17:00.903Z,47.09
2018-04-09T06:19:26.706Z,47.23
2018-04-09T06:21:52.596Z,47.14
2018-04-09T06:24:18.402Z,47.97
2018-04-09T06:26:44.207Z,48.67
2018-04-09T06:29:10.025Z,48.34
2018-04-09T06:31:35.879Z,48.34
2018-04-09T06:34:01.694Z,48.51
2018-04-09T06:36:27.503Z,48.46
2018-04-09T06:38:53.338Z,48.93
2018-04-09T06:41:19.163Z,48.90
2018-04-09T06:43:45.028Z,48.38
2018-04-09T06:46:10.856Z,48.68
2018-04-09T06:48:36.681Z,48.90
2018-04-09T06:51:02.515Z,49.02
2018-04-09T06:53:28.338Z,49.02
2018-04-09T06:55:54.202Z,49.11
2018-04-09T06:58:20.030Z,48.94
2018-04-09T07:00:45.862Z,49.61
2018-04-09T07:03:11.690Z,49.01
2018-04-09T07:05:37.514Z,49.27
2018-04-09T07:08:03.339Z,49.18
2018-04-09T07:10:29.153Z,49.39
2018-04-09T07:12:54.986Z,49.28
2018-04-09T07:15:20.827Z,49.62
2018-04-09T07:17:47.538Z,49.55
2018-04-09T07:20:13.355Z,49.61
2018-04-09T07:22:39.171Z,49.44
2018-04-09T07:25:04.983Z,49.46
2018-04-09T07:27:30.809Z,49.46
2018-04-09T07:29:56.713Z,49.63
2018-04-09T07:32:22.578Z,49.91
2018-04-09T07:34:48.394Z,49.55
2018-04-09T07:37:14.243Z,49.63
2018-04-09T07:39:40.053Z,49.52
2018-04-09T07:42:05.939Z,49.31
2018-04-09T07:44:31.750Z,49.22
2018-04-09T07:46:57.564Z,49.13
2018-04-09T07:49:23.373Z,49.36
2018-04-09T07:51:49.227Z,49.48
2018-04-09T07:54:15.130Z,49.56
2018-04-09T07:56:42.095Z,49.46
2018-04-09T07:59:07.906Z,49.57
2018-04-09T08:01:33.713Z,49.28
2018-04-09T08:03:59.530Z,49.21
2018-04-09T08:06:25.360Z,49.36
2018-04-09T08:08:51.184Z,49.43
2018-04-09T08:11:17.122Z,49.60
2018-04-09T08:13:43.034Z,49.73
2018-04-09T08:16:08.870Z,49.51
2018-04-09T08:18:34.677Z,49.51
2018-04-09T08:21:00.539Z,49.49
2018-04-09T08:23:26.350Z,49.33
2018-04-09T08:25:52.163Z,49.54
2018-04-09T08:28:17.997Z,49.40
2018-04-09T08:30:43.844Z,49.44
2018-04-09T08:33:09.786Z,49.37
2018-04-09T08:35:35.633Z,49.30
2018-04-09T08:38:01.442Z,49.31
2018-04-09T08:40:27.354Z,49.35
2018-04-09T08:42:53.163Z,49.24
2018-04-09T08:45:19.102Z,49.52
2018-04-09T08:47:44.911Z,49.54
2018-04-09T08:50:10.721Z,49.42
2018-04-09T08:52:36.527Z,49.56
2018-04-09T08:55:02.337Z,49.57
2018-04-09T08:57:28.206Z,49.58
2018-04-09T08:59:55.254Z,49.80
2018-04-09T09:02:21.256Z,49.14
2018-04-09T09:04:47.173Z,49.32
2018-04-09T09:07:13.282Z,49.36
2018-04-09T09:09:40.355Z,49.31
2018-04-09T09:12:06.403Z,49.45
2018-04-09T09:14:32.222Z,49.51
2018-04-09T09:16:58.030Z,49.45
2018-04-09T09:19:23.843Z,49.48
2018-04-09T09:21:49.663Z,49.46
2018-04-09T09:24:15.471Z,49.39
2018-04-09T09:26:41.351Z,49.40
2018-04-09T09:29:07.159Z,49.41
2018-04-09T09:31:32.982Z,49.45
2018-04-09T09:33:58.825Z,49.38
2018-04-09T09:36:24.654Z,49.47
2018-04-09T09:38:50.466Z,49.35
2018-04-09T09:41:16.272Z,49.42
2018-04-09T09:43:42.094Z,49.45
2018-04-09T09:46:07.902Z,49.57
2018-04-09T09:48:33.722Z,49.45
2018-04-09T09:50:59.529Z,49.23
2018-04-09T09:53:25.334Z,49.29
2018-04-09T09:55:51.240Z,49.25
2018-04-09T09:58:17.039Z,49.07
2018-04-09T10:00:47.090Z,49.16
2018-04-09T10:03:12.914Z,49.05
2018-04-09T10:05:47.157Z,49.04
2018-04-09T10:08:13.097Z,49.07
2018-04-09T10:10:38.934Z,49.18
2018-04-09T10:13:04.744Z,49.16
2018-04-09T10:15:30.722Z,49.15
2018-04-09T10:17:56.528Z,48.73
2018-04-09T10:20:22.420Z,48.40
2018-04-09T10:22:48.219Z,48.05
2018-04-09T10:25:14.080Z,47.91
2018-04-09T10:27:39.926Z,47.87
2018-04-09T10:30:05.763Z,47.85
2018-04-09T10:32:31.622Z,47.88
2018-04-09T10:34:57.427Z,47.91
2018-04-09T10:37:23.418Z,47.90
2018-04-09T10:39:49.315Z,47.96
2018-04-09T10:42:15.166Z,48.03
2018-04-09T10:44:40.986Z,48.01
2018-04-09T10:47:07.057Z,48.08
2018-04-09T10:49:33.061Z,48.16
2018-04-09T10:51:58.937Z,48.17
2018-04-09T10:54:24.947Z,48.24
2018-04-09T10:56:50.755Z,48.31
2018-04-09T10:59:16.593Z,48.43
2018-04-09T11:01:42.397Z,48.48
2018-04-09T11:04:08.303Z,48.72
2018-04-09T11:06:34.086Z,48.66
2018-04-09T11:08:59.983Z,48.78
2018-04-09T11:11:25.802Z,48.88
2018-04-09T11:13:51.765Z,48.95
2018-04-09T11:16:17.584Z,49.08
2018-04-09T11:18:43.385Z,49.15
2018-04-09T11:21:09.193Z,49.33
2018-04-09T11:23:35.002Z,49.30
2018-04-09T11:26:00.806Z,49.36
2018-04-09T11:28:26.631Z,49.31
2018-04-09T11:30:52.443Z,49.50
2018-04-09T11:33:18.254Z,49.37
2018-04-09T11:35:44.114Z,49.37
2018-04-09T11:38:09.925Z,49.58
2018-04-09T11:40:35.759Z,49.61
2018-04-09T11:43:01.565Z,49.59
2018-04-09T11:45:27.481Z,49.52
2018-04-09T11:47:53.324Z,49.56
2018-04-09T11:50:19.128Z,49.58
2018-04-09T11:52:44.932Z,49.61
2018-04-09T11:55:10.740Z,49.57
2018-04-09T11:57:36.546Z,49.78
2018-04-09T12:00:02.386Z,49.83
2018-04-09T12:02:28.278Z,49.80
2018-04-09T12:04:54.102Z,49.97
2018-04-09T12:07:19.948Z,49.87
2018-04-09T12:09:45.769Z,49.86
2018-04-09T12:12:11.713Z,49.70
2018-04-09T12:14:37.520Z,50.05
2018-04-09T12:17:03.326Z,49.89
2018-04-09T12:19:29.134Z,49.93
2018-04-09T12:21:54.940Z,50.06
2018-04-09T12:24:20.744Z,50.04
2018-04-09T12:26:46.552Z,49.97
2018-04-09T12:29:12.437Z,50.16
2018-04-09T12:31:38.248Z,49.98
2018-04-09T12:34:04.060Z,50.11
2018-04-09T12:36:29.905Z,49.97
2018-04-09T12:38:55.709Z,50.07
2018-04-09T12:41:21.564Z,50.19
2018-04-09T12:43:47.368Z,50.09
2018-04-09T12:46:13.177Z,49.93
2018-04-09T12:48:38.984Z,50.09
2018-04-09T12:51:04.790Z,50.02
2018-04-09T12:53:30.735Z,50.05
2018-04-09T12:55:56.545Z,49.88
2018-04-09T12:58:22.340Z,49.95
2018-04-09T13:00:48.145Z,49.98
2018-04-09T13:03:13.999Z,49.99
2018-04-09T13:05:39.828Z,49.93
2018-04-09T13:08:05.634Z,50.03
2018-04-09T13:10:31.440Z,49.97
2018-04-09T13:12:57.248Z,50.04
2018-04-09T13:15:23.060Z,49.98
2018-04-09T13:17:48.860Z,50.01
2018-04-09T13:20:14.667Z,50.08
2018-04-09T13:22:40.501Z,50.13
2018-04-09T13:25:06.348Z,50.00
2018-04-09T13:27:32.152Z,50.03
2018-04-09T13:29:57.979Z,50.05
2018-04-09T13:32:23.863Z,50.05
2018-04-09T13:34:49.708Z,50.29
2018-04-09T13:37:15.571Z,50.24
2018-04-09T13:39:41.385Z,50.05
2018-04-09T13:42:08.056Z,50.13
2018-04-09T13:44:33.870Z,50.24
2018-04-09T13:46:59.708Z,50.32
2018-04-09T13:49:25.529Z,50.41
2018-04-09T13:51:51.335Z,50.46
2018-04-09T13:54:17.168Z,50.38
2018-04-09T13:56:42.972Z,50.29
2018-04-09T14:01:56.016Z,50.52
2018-04-09T14:04:21.820Z,50.42
2018-04-09T14:06:47.673Z,50.27
2018-04-09T14:09:13.542Z,50.28
2018-04-09T14:11:39.388Z,50.39
2018-04-09T14:14:05.207Z,50.36
2018-04-09T14:16:31.057Z,50.36
2018-04-09T14:18:56.869Z,50.33
2018-04-09T14:21:22.680Z,50.22
2018-04-09T14:23:48.497Z,50.04
2018-04-09T14:26:14.314Z,50.09
2018-04-09T14:28:40.210Z,49.86
2018-04-09T14:31:06.040Z,49.87
2018-04-09T14:33:31.876Z,49.80
2018-04-09T14:35:57.680Z,49.84
2018-04-09T14:38:23.520Z,49.82
2018-04-09T14:40:49.353Z,49.89
2018-04-09T14:43:15.166Z,49.87
2018-04-09T14:45:40.981Z,49.72
2018-04-09T14:48:06.803Z,49.89
2018-04-09T14:50:32.617Z,49.76
2018-04-09T14:52:58.424Z,49.81
2018-04-09T14:55:24.233Z,49.93
2018-04-09T14:57:50.068Z,49.82
2018-04-09T15:00:16.821Z,49.80
2018-04-09T15:02:42.668Z,49.95
2018-04-09T15:05:08.476Z,49.97
2018-04-09T15:07:34.285Z,49.99
2018-04-09T15:10:00.104Z,49.99
2018-04-09T15:12:25.917Z,50.00
2018-04-09T15:14:51.740Z,49.98
2018-04-09T15:17:17.555Z,50.08
2018-04-09T15:19:43.388Z,50.05
2018-04-09T15:22:09.200Z,50.07
2018-04-09T15:24:35.029Z,50.13
2018-04-09T15:27:00.876Z,50.23
2018-04-09T15:29:26.728Z,50.28
2018-04-09T15:31:52.536Z,50.18
2018-04-09T15:34:18.340Z,50.26
2018-04-09T15:36:44.155Z,50.20
2018-04-09T15:39:09.963Z,50.26
2018-04-09T15:41:35.777Z,50.33
2018-04-09T15:44:01.599Z,50.30
2018-04-09T15:46:27.420Z,50.29
2018-04-09T15:48:53.232Z,50.32
2018-04-09T15:51:19.044Z,50.27
2018-04-09T15:53:44.852Z,50.33
2018-04-09T15:56:10.659Z,50.26
2018-04-09T15:58:36.469Z,50.43
2018-04-09T16:01:02.283Z,50.34
2018-04-09T16:03:28.114Z,50.45
2018-04-09T16:05:53.955Z,50.52
2018-04-09T16:08:19.768Z,50.43
2018-04-09T16:10:45.576Z,50.56
2018-04-09T16:13:11.389Z,50.60
2018-04-09T16:15:37.202Z,50.63
2018-04-09T16:18:03.957Z,50.53
2018-04-09T16:20:29.770Z,50.58
2018-04-09T16:22:55.633Z,50.70
2018-04-09T16:25:21.440Z,50.69
2018-04-09T16:27:47.252Z,50.76
2018-04-09T16:30:13.069Z,50.74
2018-04-09T16:32:38.880Z,50.76
2018-04-09T16:35:04.693Z,50.91
2018-04-09T16:37:30.521Z,50.96
2018-04-09T16:39:56.365Z,51.08
2018-04-09T16:42:22.176Z,51.04
2018-04-09T16:44:47.984Z,51.13
2018-04-09T16:47:13.841Z,51.23
2018-04-09T16:49:39.684Z,51.21
2018-04-09T16:52:05.523Z,51.21
2018-04-09T16:54:31.400Z,51.18
2018-04-09T16:56:57.221Z,51.36
2018-04-09T16:59:23.072Z,51.41
2018-04-09T17:01:48.949Z,51.04
2018-04-09T17:04:14.811Z,51.33
2018-04-09T17:06:40.637Z,51.45
2018-04-09T17:09:06.481Z,51.50
2018-04-09T17:11:32.317Z,51.50
2018-04-09T17:13:58.159Z,51.58
2018-04-09T17:16:24.001Z,51.73
2018-04-09T17:18:49.836Z,51.68
2018-04-09T17:21:15.676Z,51.60
2018-04-09T17:23:41.512Z,51.76
2018-04-09T17:26:07.388Z,51.77
2018-04-09T17:28:33.201Z,51.87
2018-04-09T17:30:59.058Z,51.73
2018-04-09T17:33:24.916Z,51.90
2018-04-09T17:35:50.792Z,51.77
2018-04-09T17:38:16.615Z,51.89
2018-04-09T17:40:42.444Z,51.90
2018-04-09T17:43:09.207Z,51.84
2018-04-09T17:45:35.053Z,52.05
2018-04-09T17:48:00.860Z,52.10
2018-04-09T17:50:26.708Z,52.08
2018-04-09T17:52:52.860Z,52.04
2018-04-09T17:55:18.900Z,52.23
2018-04-09T17:57:44.713Z,52.08
2018-04-09T18:00:10.528Z,51.87
2018-04-09T18:02:36.351Z,51.41
2018-04-09T18:05:02.213Z,51.00
2018-04-09T18:07:28.055Z,50.62
2018-04-09T18:09:55.265Z,50.18
2018-04-09T18:12:22.670Z,49.75
2018-04-09T18:14:48.548Z,49.57
2018-04-09T18:17:14.352Z,49.50
2018-04-09T18:19:40.184Z,49.31
2018-04-09T18:22:05.993Z,49.15
2018-04-09T18:24:31.817Z,49.21
2018-04-09T18:26:57.681Z,49.19
2018-04-09T18:29:23.581Z,49.40
2018-04-09T18:31:49.391Z,49.48
2018-04-09T18:34:15.202Z,49.60
2018-04-09T18:36:41.067Z,49.54
2018-04-09T18:39:06.885Z,49.65
2018-04-09T18:41:32.701Z,49.75
2018-04-09T18:43:58.525Z,49.74
2018-04-09T18:46:24.342Z,49.83
2018-04-09T18:48:50.193Z,49.82
2018-04-09T18:51:15.997Z,50.03
2018-04-09T18:53:41.809Z,50.05
2018-04-09T18:56:07.709Z,50.10
2018-04-09T18:58:33.704Z,50.37
2018-04-09T19:00:59.979Z,50.42
2018-04-09T19:03:25.888Z,50.53
2018-04-09T19:05:52.237Z,50.57
2018-04-09T19:08:18.113Z,50.39
2018-04-09T19:10:43.928Z,50.49
2018-04-09T19:13:09.770Z,50.47
2018-04-09T19:15:35.583Z,50.66
2018-04-09T19:18:01.449Z,50.72
2018-04-09T19:20:28.116Z,50.69
2018-04-09T19:22:54.083Z,50.62
2018-04-09T19:25:20.282Z,50.76
2018-04-09T19:27:46.132Z,50.78
2018-04-09T19:30:12.579Z,50.97
2018-04-09T19:32:38.397Z,50.81
2018-04-09T19:35:08.094Z,50.97
2018-04-09T19:37:40.405Z,50.85
2018-04-09T19:40:13.513Z,50.99
2018-04-09T19:42:39.365Z,51.02
2018-04-09T19:45:05.184Z,51.02
2018-04-09T19:47:31.009Z,50.81
2018-04-09T19:49:56.820Z,50.84
2018-04-09T19:52:24.720Z,50.99
2018-04-09T19:54:51.544Z,50.84
2018-04-09T19:57:20.361Z,50.90
2018-04-09T19:59:46.207Z,50.88
2018-04-09T20:02:12.409Z,50.84
2018-04-09T20:04:38.245Z,50.92
2018-04-09T20:07:04.241Z,50.93
2018-04-09T20:09:30.405Z,50.81
2018-04-09T20:11:56.308Z,50.94
2018-04-09T20:14:22.404Z,50.88
2018-04-09T20:16:48.505Z,50.88
2018-04-09T20:19:18.533Z,50.99
2018-04-09T20:21:44.419Z,51.01
2018-04-09T20:24:10.252Z,51.27
2018-04-09T20:26:36.167Z,51.21
2018-04-09T20:29:01.981Z,51.26
2018-04-09T20:31:28.680Z,50.94
2018-04-09T20:33:54.497Z,51.10
2018-04-09T20:36:20.425Z,50.92
2018-04-09T20:38:46.248Z,51.02
2018-04-09T20:41:12.098Z,51.13
2018-04-09T20:43:37.929Z,51.22
2018-04-09T20:46:03.748Z,51.16
2018-04-09T20:48:29.687Z,51.23
2018-04-09T20:50:55.496Z,51.20
2018-04-09T20:53:21.311Z,51.26
2018-04-09T20:55:47.161Z,51.22
2018-04-09T20:58:12.977Z,51.02
2018-04-09T21:00:38.793Z,51.47
2018-04-09T21:03:04.609Z,51.13
2018-04-09T21:05:30.416Z,51.27
2018-04-09T21:07:56.263Z,51.31
2018-04-09T21:10:22.076Z,51.46
2018-04-09T21:12:47.922Z,51.28
2018-04-09T21:15:13.794Z,51.29
2018-04-09T21:17:39.603Z,51.73
2018-04-09T21:20:05.412Z,51.29
2018-04-09T21:22:31.253Z,51.59
2018-04-09T21:25:03.873Z,51.62
2018-04-09T21:27:29.695Z,51.49
2018-04-09T21:29:55.514Z,51.38
2018-04-09T21:32:21.361Z,51.58
2018-04-09T21:34:47.172Z,51.56
2018-04-09T21:37:13.015Z,51.57
2018-04-09T21:39:38.836Z,51.33
2018-04-09T21:42:04.729Z,51.50
2018-04-09T21:44:30.538Z,51.21
2018-04-09T21:46:56.352Z,51.33
2018-04-09T21:49:22.169Z,51.39
2018-04-09T21:51:47.984Z,51.39
2018-04-09T21:54:13.794Z,51.43
2018-04-09T21:56:39.606Z,51.25
2018-04-09T21:59:05.412Z,51.04
2018-04-09T22:01:31.231Z,51.60
2018-04-09T22:03:57.040Z,51.20
2018-04-09T22:06:22.854Z,51.33
2018-04-09T22:08:48.663Z,51.20
2018-04-09T22:11:14.475Z,51.13
2018-04-09T22:13:40.280Z,51.04
2018-04-09T22:16:06.103Z,51.11
2018-04-09T22:18:31.920Z,51.32
2018-04-09T22:20:57.760Z,51.33
2018-04-09T22:23:23.569Z,51.30
2018-04-09T22:25:49.376Z,51.31
2018-04-09T22:28:15.184Z,51.52
2018-04-09T22:30:41.011Z,51.60
2018-04-09T22:33:06.827Z,51.53
2018-04-09T22:35:32.640Z,51.49
2018-04-09T22:37:58.517Z,51.60
2018-04-09T22:40:24.332Z,51.98
2018-04-09T22:42:50.154Z,51.22
2018-04-09T22:45:15.963Z,51.43
2018-04-09T22:47:41.806Z,51.45
2018-04-09T22:50:07.612Z,51.14
2018-04-09T22:52:33.419Z,51.43
2018-04-09T22:54:59.233Z,51.30
2018-04-09T22:57:25.040Z,51.54
2018-04-09T22:59:50.872Z,51.24
2018-04-09T23:02:16.716Z,50.76
2018-04-09T23:04:42.554Z,51.22
2018-04-09T23:07:08.392Z,50.79
2018-04-09T23:09:34.201Z,49.90
2018-04-09T23:12:00.013Z,49.77
2018-04-09T23:14:25.830Z,50.24
2018-04-09T23:16:51.640Z,50.31
2018-04-09T23:19:17.439Z,50.28
2018-04-09T23:21:43.261Z,49.80
2018-04-09T23:24:09.080Z,50.31
2018-04-09T23:26:34.889Z,50.16
2018-04-09T23:29:00.732Z,49.88
2018-04-09T23:31:26.532Z,49.78
2018-04-09T23:33:52.340Z,50.12
2018-04-09T23:36:18.155Z,50.39
2018-04-09T23:38:43.964Z,50.80
2018-04-09T23:41:09.772Z,50.43
2018-04-09T23:43:35.592Z,50.83
2018-04-09T23:46:01.401Z,50.53
2018-04-09T23:48:27.213Z,50.49
2018-04-09T23:50:53.024Z,50.20
2018-04-09T23:53:18.828Z,50.82
2018-04-09T23:55:44.648Z,50.96
2018-04-09T23:58:10.479Z,50.67
